Nearby METAR Reports

Meteorological Terminal Air Report (METAR)

K3I2 - Pt Pleasant, West Virginia, USA
Distance from station: S 11mi, 18km
Updated: Wed, 18-May-2022 6:35pm EDT
Light rain, Clear
Light rain, Clear
 Wind from calm
Wind: Calm
Temperature: 72°F , 22°C
Dew Point: 63°F , 17°C
Humidity: 73%
Barometer: 29.81 inHg , 1009.5 hPa
Summary: Light rain
Clouds: Clear
Visibility: 10 miles , 16 km
2022/05/18 22:35 K3I2 182235Z AUTO 00000KT 10SM -RA CLR 22/17 A2981 RMK AO2 T02150168
KUNI - Athens, Ohio, USA
Distance from station: NW 13mi, 21km
Updated: Wed, 18-May-2022 6:35pm EDT
Light drizzle, Mostly cloudy
Light drizzle, Mostly cloudy
 Wind from calm
Wind: Calm
Temperature: 72°F , 22°C
Dew Point: 61°F , 16°C
Humidity: 69%
Barometer: 29.80 inHg , 1009.1 hPa
Summary: Light Drizzle
Clouds: Mostly cloudy
Visibility: 10 miles , 16 km
Cloud details: Mostly cloudy 11000 ft
2022/05/18 22:35 KUNI 182235Z AUTO 00000KT 10SM -DZ BKN110 22/16 A2980 RMK AO2 T02150156
 
KPKB - Parkersburg, West Virginia, USA
Distance from station: ENE 40mi, 65km
Updated: Wed, 18-May-2022 6:53pm EDT
Overcast
Overcast
 Wind from calm
Wind: Calm
Temperature: 70°F , 21°C
Dew Point: 61°F , 16°C
Humidity: 73%
Barometer: 29.80 inHg , 1009.1 hPa
Clouds: Overcast
Visibility: 10 miles , 16 km
Cloud details: Overcast 11000 ft
2022/05/18 22:53 KPKB 182253Z 00000KT 10SM OVC110 21/16 A2980 RMK AO2 RAB15E24 SLP088 P0000 T02060161
KCRW - Charleston, West Virginia, USA
Distance from station: SSE 55mi, 88km
Updated: Wed, 18-May-2022 6:54pm EDT
Partly cloudy
Partly cloudy
 Wind from varies
Wind: varies 5 mph , 7 km/h
Temperature: 72°F , 22°C
Dew Point: 63°F , 17°C
Humidity: 73%
Barometer: 29.77 inHg , 1008.1 hPa
Clouds: Partly cloudy
Visibility: 10 miles , 16 km
Cloud details: Few Clouds 11000 ft
Partly cloudy 12000 ft
2022/05/18 22:54 KCRW 182254Z VRB04KT 10SM FEW110 SCT120 22/17 A2977 RMK AO2 SLP076 T02170167
 
KHTS - Huntington, West Virginia, USA
Distance from station: SSW 55mi, 89km
Updated: Wed, 18-May-2022 6:51pm EDT
Light rain, Overcast
Light rain, Overcast
 Wind from SW
Wind: SW 10 mph , 17 km/h, Gust: 18 mph , 30 km/h
Temperature: 72°F , 22°C
Dew Point: 61°F , 16°C
Humidity: 69%
Barometer: 29.83 inHg , 1010.2 hPa
Summary: Light rain
Clouds: Overcast
Visibility: 9 miles , 14 km
Cloud details: Few Clouds 6000 ft
Partly cloudy 9000 ft
Overcast 11000 ft
2022/05/18 22:51 KHTS 182251Z 22009G16KT 190V250 9SM -RA FEW060 SCT090 OVC110 22/16 A2983 RMK AO2 LTG DSNT SW AND W RAB12 PRESRR SLP098 P0000 T02170161
KLHQ - Lancaster, Ohio, USA
Distance from station: NW 56mi, 91km
Updated: Wed, 18-May-2022 6:53pm EDT
Light rain, Overcast
Light rain, Overcast
 Wind from calm
Wind: Calm
Temperature: 66°F , 19°C
Dew Point: 64°F , 18°C
Humidity: 94%
Barometer: 29.80 inHg , 1009.1 hPa
Summary: Light rain
Clouds: Overcast
Visibility: 10 miles , 16 km
Cloud details: Few Clouds 7500 ft
Overcast 10000 ft
2022/05/18 22:53 KLHQ 182253Z AUTO 00000KT 10SM -RA FEW075 OVC100 19/18 A2980 RMK AO2 SLP086 P0000 T01940178
 
KZZV - Zanesville, Ohio, USA
Distance from station: N 61mi, 99km
Updated: Wed, 18-May-2022 6:53pm EDT
Light rain, Overcast
Light rain, Overcast
 Wind from calm
Wind: Calm
Temperature: 64°F , 18°C
Dew Point: 63°F , 17°C
Humidity: 94%
Barometer: 29.81 inHg , 1009.5 hPa
Summary: Light rain
Clouds: Overcast
Visibility: 10 miles , 16 km
Cloud details: Few Clouds 8000 ft
Overcast 9500 ft
2022/05/18 22:53 KZZV 182253Z AUTO 00000KT 10SM -RA FEW080 OVC095 18/17 A2981 RMK AO2 SLP090 P0002 T01830167
KLCK - Rickenbacker Ang, Ohio, USA
Distance from station: NW 68mi, 110km
Updated: Wed, 18-May-2022 5:55pm EDT
Light rain, Overcast
Light rain, Overcast
 Wind from SSW
Wind: SSW 9 mph , 15 km/h
Temperature: 70°F , 21°C
Dew Point: 61°F , 16°C
Humidity: 73%
Barometer: 29.80 inHg , 1009.1 hPa
Summary: Light rain
Clouds: Overcast
Visibility: 10 miles , 16 km
Cloud details: Partly cloudy 4800 ft
Partly cloudy 6000 ft
Overcast 9000 ft
2022/05/18 21:55 KLCK 182155Z AUTO 21008KT 10SM -RA SCT048 SCT060 OVC090 21/16 A2980 RMK AO2 T02060160
 
KVTA - Newark, Ohio, USA
Distance from station: NNW 68mi, 110km
Updated: Wed, 18-May-2022 6:54pm EDT
Light rain, Overcast
Light rain, Overcast
 Wind from S
Wind: S 5 mph , 7 km/h
Temperature: 68°F , 20°C
Dew Point: 59°F , 15°C
Humidity: 73%
Barometer: 29.79 inHg , 1008.8 hPa
Summary: Light rain
Clouds: Overcast
Visibility: 10 miles , 16 km
Cloud details: Few Clouds 6500 ft
Overcast 9000 ft
2022/05/18 22:54 KVTA 182254Z AUTO 17004KT 10SM -RA FEW065 OVC090 20/15 A2979 RMK AO2 SLP084 P0003 T02000150